Time;durP1;ratioP1;P1;durP2;ratioP2;P2;SDS_P1;SDS_P2;PMS_P1;PMS_P2;Temp;Humidity;BMP_temperature;BMP_pressure;BME280_temperature;BME280_humidity;BME280_pressure;Samples;Min_cycle;Max_cycle;Signal;HPM_P1;HPM_P2
2022/09/27 00:02:02;;;;;;;;;;;25.30;99.90;;;;;;4143479;28;19926;-68
2022/09/27 00:04:11;;;;;;;;;;;25.10;99.90;;;;;;4143768;28;20315;-67
2022/09/27 00:06:28;;;;;;;;;;;25.20;99.90;;;;;;4143131;28;20353;-67
2022/09/27 00:08:32;;;;;;;;;;;25.20;99.90;;;;;;4140518;28;19950;-69
2022/09/27 00:10:38;;;;;;;;;;;25.10;99.90;;;;;;4143790;28;19925;-70
2022/09/27 00:12:54;;;;;;;;;;;24.90;99.90;;;;;;4143863;28;20007;-69
2022/09/27 00:15:19;;;;;;;;;;;25.00;99.90;;;;;;4141038;28;19925;-67
2022/09/27 00:17:24;;;;;;;;;;;25.20;99.90;;;;;;4128807;28;19929;-69
2022/09/27 00:19:33;;;;;;;;;;;25.20;99.90;;;;;;4138381;28;19926;-68
2022/09/27 00:21:38;;;;;;;;;;;25.20;99.90;;;;;;4144553;28;19926;-69
2022/09/27 00:23:50;;;;;;;;;;;25.20;99.90;;;;;;4144149;28;19932;-70
2022/09/27 00:26:05;;;;;;;;;;;25.20;99.90;;;;;;4172544;28;19931;-69
2022/09/27 00:28:16;;;;;;;;;;;25.10;99.90;;;;;;4144232;28;20447;-69
2022/09/27 00:30:22;;;;;;;;;;;25.20;99.90;;;;;;4143977;28;19975;-69
2022/09/27 00:32:31;;;;;;;;;;;25.20;99.90;;;;;;4144309;28;19925;-71
2022/09/27 00:34:39;;;;;;;;;;;25.20;99.90;;;;;;4174789;28;20536;-71
2022/09/27 00:36:44;;;;;;;;;;;25.10;99.90;;;;;;4143855;28;20061;-70
2022/09/27 00:38:52;;;;;;;;;;;25.10;99.90;;;;;;4174689;28;20306;-69
2022/09/27 00:40:57;;;;;;;;;;;25.10;99.90;;;;;;4158727;28;20454;-68
2022/09/27 00:43:16;;;;;;;;;;;25.20;99.90;;;;;;4143490;28;20020;-68
2022/09/27 00:45:24;;;;;;;;;;;25.20;99.90;;;;;;4143168;28;19925;-67
2022/09/27 00:47:40;;;;;;;;;;;25.10;99.90;;;;;;4146550;28;19971;-68
2022/09/27 00:50:00;;;;;;;;;;;25.20;99.90;;;;;;4146168;28;19932;-68
2022/09/27 00:52:07;;;;;;;;;;;25.30;99.90;;;;;;4146711;28;19929;-68
2022/09/27 00:54:15;;;;;;;;;;;25.20;99.90;;;;;;4146490;28;20016;-69
2022/09/27 00:56:21;;;;;;;;;;;25.10;99.90;;;;;;4145072;28;20379;-69
2022/09/27 00:58:34;;;;;;;;;;;25.10;99.90;;;;;;4146577;28;19932;-68
2022/09/27 01:00:39;;;;;;;;;;;25.10;99.90;;;;;;4145643;28;19964;-69
2022/09/27 01:02:53;;;;;;;;;;;25.20;99.90;;;;;;4145729;28;20360;-68
2022/09/27 01:05:06;;;;;;;;;;;25.40;99.90;;;;;;4174880;28;19924;-70
2022/09/27 01:07:18;;;;;;;;;;;25.60;99.90;;;;;;4145766;28;19932;-69
2022/09/27 01:09:26;;;;;;;;;;;25.60;99.90;;;;;;4159960;28;19928;-68
2022/09/27 01:11:53;;;;;;;;;;;25.60;99.90;;;;;;4158047;28;19921;-69
2022/09/27 01:14:20;;;;;;;;;;;25.70;99.90;;;;;;4176842;28;19934;-68
2022/09/27 01:16:36;;;;;;;;;;;25.60;99.90;;;;;;4175543;28;20383;-68
2022/09/27 01:19:00;;;;;;;;;;;25.70;99.90;;;;;;4145958;28;19933;-69
2022/09/27 01:21:43;;;;;;;;;;;25.80;99.90;;;;;;4144501;28;19933;-70
2022/09/27 01:24:14;;;;;;;;;;;26.00;99.90;;;;;;4173059;28;19974;-70
2022/09/27 01:26:53;;;;;;;;;;;26.20;99.90;;;;;;4145290;28;20368;-70
2022/09/27 01:29:31;;;;;;;;;;;26.10;99.90;;;;;;4145294;28;19921;-68
2022/09/27 01:31:41;;;;;;;;;;;26.00;99.90;;;;;;4144921;28;19926;-69
2022/09/27 01:34:18;;;;;;;;;;;26.00;99.90;;;;;;4173528;28;20354;-70
2022/09/27 01:36:45;;;;;;;;;;;26.10;99.90;;;;;;4144226;28;19974;-69
2022/09/27 01:39:04;;;;;;;;;;;26.20;99.90;;;;;;4176321;28;20366;-68
2022/09/27 01:41:48;;;;;;;;;;;26.20;99.90;;;;;;4171840;28;19931;-67
2022/09/27 01:44:44;;;;;;;;;;;26.00;99.90;;;;;;4171706;28;19956;-68
2022/09/27 01:47:27;;;;;;;;;;;26.00;99.90;;;;;;4172872;28;20039;-68
2022/09/27 01:50:07;;;;;;;;;;;26.10;99.90;;;;;;4186491;28;19943;-68
2022/09/27 01:52:21;;;;;;;;;;;26.10;99.90;;;;;;4174778;28;19925;-68
2022/09/27 01:54:35;;;;;;;;;;;26.10;99.90;;;;;;4172211;28;19964;-69
2022/09/27 01:57:19;;;;;;;;;;;26.00;99.90;;;;;;4171753;28;19924;-69
2022/09/27 01:59:36;;;;;;;;;;;26.10;99.90;;;;;;4158009;28;20445;-69
2022/09/27 02:02:21;;;;;;;;;;;26.10;99.90;;;;;;4172000;28;20011;-68
2022/09/27 02:05:05;;;;;;;;;;;26.30;99.90;;;;;;4182266;28;19986;-68
2022/09/27 02:07:16;;;;;;;;;;;26.30;99.90;;;;;;4175379;28;19928;-68
2022/09/27 02:09:44;;;;;;;;;;;26.30;99.90;;;;;;4185744;28;19966;-67
2022/09/27 02:12:09;;;;;;;;;;;26.30;99.90;;;;;;4144504;28;20399;-68
2022/09/27 02:14:41;;;;;;;;;;;26.40;99.90;;;;;;4144646;28;19929;-69
2022/09/27 02:16:58;;;;;;;;;;;26.50;99.90;;;;;;4144764;28;20010;-68
2022/09/27 02:19:15;;;;;;;;;;;26.50;99.90;;;;;;4174765;28;20426;-68
2022/09/27 02:21:41;;;;;;;;;;;26.60;99.90;;;;;;4172943;28;20000;-68
2022/09/27 02:23:51;;;;;;;;;;;26.80;99.90;;;;;;4174481;28;19924;-68
2022/09/27 02:26:23;;;;;;;;;;;26.90;99.90;;;;;;4186046;28;19920;-68
2022/09/27 02:28:35;;;;;;;;;;;26.90;99.90;;;;;;4175122;28;19924;-68
2022/09/27 02:30:48;;;;;;;;;;;26.90;99.90;;;;;;4158604;28;19929;-68
2022/09/27 02:33:07;;;;;;;;;;;27.00;99.90;;;;;;4173934;28;19921;-68
2022/09/27 02:35:31;;;;;;;;;;;27.10;99.90;;;;;;4183514;28;19947;-72
2022/09/27 02:37:51;;;;;;;;;;;27.20;99.90;;;;;;4172849;28;20419;-71
2022/09/27 02:40:04;;;;;;;;;;;27.30;99.90;;;;;;4143414;28;19925;-72
2022/09/27 02:42:23;;;;;;;;;;;27.10;99.90;;;;;;4186406;28;19970;-71
2022/09/27 02:44:47;;;;;;;;;;;27.30;99.90;;;;;;4170147;28;20467;-71
2022/09/27 02:47:11;;;;;;;;;;;27.40;99.90;;;;;;4157635;28;19925;-70
2022/09/27 02:49:35;;;;;;;;;;;27.60;99.90;;;;;;4143387;28;19928;-67
2022/09/27 02:52:38;;;;;;;;;;;27.60;99.90;;;;;;4154229;28;20296;-69
2022/09/27 02:55:19;;;;;;;;;;;27.60;99.90;;;;;;4127165;28;19956;-69
2022/09/27 02:57:57;;;;;;;;;;;27.60;99.90;;;;;;4127186;28;19929;-70
2022/09/27 03:00:31;;;;;;;;;;;27.60;99.90;;;;;;4155153;28;19921;-70
2022/09/27 03:03:11;;;;;;;;;;;27.70;99.90;;;;;;4143303;28;19984;-70
2022/09/27 03:05:51;;;;;;;;;;;27.70;99.90;;;;;;4158391;28;19971;-69
2022/09/27 03:08:05;;;;;;;;;;;27.90;99.90;;;;;;4174302;28;19928;-71
2022/09/27 03:10:26;;;;;;;;;;;27.90;99.90;;;;;;4171894;28;19925;-69
2022/09/27 03:12:41;;;;;;;;;;;27.90;99.90;;;;;;4176373;28;19924;-70
2022/09/27 03:14:55;;;;;;;;;;;28.10;99.90;;;;;;4176631;28;19925;-69
2022/09/27 03:17:39;;;;;;;;;;;28.10;99.90;;;;;;4168505;28;19925;-69
2022/09/27 03:20:04;;;;;;;;;;;28.00;99.90;;;;;;4147637;28;19926;-69
2022/09/27 03:22:23;;;;;;;;;;;28.00;99.90;;;;;;4178550;28;20256;-70
2022/09/27 03:24:40;;;;;;;;;;;28.10;99.90;;;;;;4161111;28;19953;-70
2022/09/27 03:26:54;;;;;;;;;;;28.30;99.90;;;;;;4177950;28;19921;-70
2022/09/27 03:29:01;;;;;;;;;;;28.40;99.90;;;;;;4162759;28;20307;-71
2022/09/27 03:31:09;;;;;;;;;;;28.50;99.90;;;;;;4178054;28;20002;-70
2022/09/27 03:33:42;;;;;;;;;;;28.40;99.90;;;;;;4131724;28;19926;-70
2022/09/27 03:35:51;;;;;;;;;;;28.50;99.90;;;;;;4131665;28;20360;-73
2022/09/27 03:37:57;;;;;;;;;;;28.60;99.90;;;;;;4162508;28;19960;-70
2022/09/27 03:40:10;;;;;;;;;;;28.70;99.90;;;;;;4131383;28;20414;-69
2022/09/27 03:42:21;;;;;;;;;;;28.60;99.90;;;;;;4161239;28;19921;-69
2022/09/27 03:44:36;;;;;;;;;;;28.60;99.90;;;;;;4145705;28;19999;-69
2022/09/27 03:46:47;;;;;;;;;;;28.70;99.90;;;;;;4161179;28;20368;-70
2022/09/27 03:48:58;;;;;;;;;;;28.60;99.90;;;;;;4161631;28;20016;-70
2022/09/27 03:51:03;;;;;;;;;;;28.60;99.90;;;;;;4175891;28;20587;-69
2022/09/27 03:53:28;;;;;;;;;;;28.70;99.90;;;;;;4174483;28;20318;-70
2022/09/27 03:55:52;;;;;;;;;;;28.80;99.90;;;;;;4159758;28;20342;-71
2022/09/27 03:58:08;;;;;;;;;;;28.70;99.90;;;;;;4161505;28;19921;-71
2022/09/27 04:00:19;;;;;;;;;;;28.80;99.90;;;;;;4177228;28;19950;-71
2022/09/27 04:02:41;;;;;;;;;;;29.00;99.90;;;;;;4174833;28;19921;-71
2022/09/27 04:05:00;;;;;;;;;;;29.10;99.90;;;;;;4147466;28;20315;-71
2022/09/27 04:07:08;;;;;;;;;;;29.10;99.90;;;;;;4178061;28;19920;-71
2022/09/27 04:09:18;;;;;;;;;;;29.20;99.90;;;;;;4177612;28;19928;-71
2022/09/27 04:11:43;;;;;;;;;;;29.20;99.90;;;;;;4175888;28;19921;-70
2022/09/27 04:13:52;;;;;;;;;;;29.30;99.90;;;;;;4177819;28;19924;-70
2022/09/27 04:16:02;;;;;;;;;;;29.30;99.90;;;;;;4145761;28;19957;-69
2022/09/27 04:18:28;;;;;;;;;;;29.40;99.90;;;;;;4176731;28;19920;-71
2022/09/27 04:20:47;;;;;;;;;;;29.50;99.90;;;;;;4159739;28;19925;-71
2022/09/27 04:22:51;;;;;;;;;;;29.50;99.90;;;;;;4178438;28;20423;-73
2022/09/27 04:24:57;;;;;;;;;;;29.40;99.90;;;;;;4178439;28;20452;-72
2022/09/27 04:27:16;;;;;;;;;;;29.50;99.90;;;;;;4176270;28;19964;-72
2022/09/27 04:29:25;;;;;;;;;;;29.60;99.90;;;;;;4145591;28;19988;-72
2022/09/27 04:31:31;;;;;;;;;;;29.70;99.90;;;;;;4152357;28;19938;-72
2022/09/27 04:34:00;;;;;;;;;;;29.60;99.90;;;;;;4128074;28;19925;-72
2022/09/27 04:38:46;;;;;;;;;;;29.60;99.90;;;;;;4144194;28;19929;-71
2022/09/27 04:40:55;;;;;;;;;;;29.60;99.90;;;;;;4158664;28;20134;-72
2022/09/27 04:43:02;;;;;;;;;;;29.60;99.90;;;;;;4144042;28;19957;-71
2022/09/27 04:45:14;;;;;;;;;;;29.60;99.90;;;;;;4142451;28;19967;-69
2022/09/27 04:47:20;;;;;;;;;;;29.80;99.90;;;;;;4144448;28;19925;-70
2022/09/27 04:49:24;;;;;;;;;;;29.80;99.90;;;;;;4175313;28;19931;-71
2022/09/27 04:51:32;;;;;;;;;;;29.90;99.90;;;;;;4138992;28;19929;-69
2022/09/27 04:53:36;;;;;;;;;;;30.00;99.90;;;;;;4142947;28;19972;-70
2022/09/27 04:55:48;;;;;;;;;;;30.10;99.50;;;;;;4158877;28;20399;-71
2022/09/27 04:57:55;;;;;;;;;;;30.00;98.70;;;;;;4142129;28;19929;-70
2022/09/27 05:00:02;;;;;;;;;;;30.00;98.40;;;;;;4142268;28;20371;-73
2022/09/27 05:02:23;;;;;;;;;;;30.10;98.60;;;;;;4157303;28;19925;-71
2022/09/27 05:04:58;;;;;;;;;;;30.20;98.30;;;;;;4143916;28;20650;-70
2022/09/27 05:07:25;;;;;;;;;;;30.20;97.90;;;;;;4170394;28;20035;-70
2022/09/27 05:09:39;;;;;;;;;;;30.30;98.50;;;;;;4157949;28;19979;-69
2022/09/27 05:11:58;;;;;;;;;;;30.20;96.60;;;;;;4156462;28;19925;-70
2022/09/27 05:14:20;;;;;;;;;;;30.20;97.10;;;;;;4161411;28;19924;-69
2022/09/27 05:16:33;;;;;;;;;;;30.30;97.60;;;;;;4174865;28;20419;-70
2022/09/27 05:18:59;;;;;;;;;;;30.30;96.00;;;;;;4143294;28;19932;-71
2022/09/27 05:21:37;;;;;;;;;;;30.30;97.10;;;;;;4144136;28;19929;-71
2022/09/27 05:23:46;;;;;;;;;;;30.40;98.00;;;;;;4176981;28;19928;-71
2022/09/27 05:26:02;;;;;;;;;;;30.50;97.60;;;;;;4175853;28;20024;-71
2022/09/27 05:28:23;;;;;;;;;;;30.50;97.90;;;;;;4158047;28;20414;-71
2022/09/27 05:30:41;;;;;;;;;;;30.40;95.80;;;;;;4143616;28;20038;-73
2022/09/27 05:32:54;;;;;;;;;;;30.50;95.30;;;;;;4177015;28;19960;-73
2022/09/27 05:35:19;;;;;;;;;;;30.60;95.90;;;;;;4145455;28;19925;-73
2022/09/27 05:37:24;;;;;;;;;;;30.70;96.30;;;;;;4177871;28;19936;-74
2022/09/27 05:39:28;;;;;;;;;;;30.70;96.20;;;;;;4176085;28;20405;-73
2022/09/27 05:41:34;;;;;;;;;;;30.50;95.90;;;;;;4160819;28;19982;-74
2022/09/27 05:43:40;;;;;;;;;;;30.40;95.50;;;;;;4146110;28;19947;-73
2022/09/27 05:45:45;;;;;;;;;;;30.40;95.90;;;;;;4161207;28;20269;-72
2022/09/27 05:47:54;;;;;;;;;;;30.50;96.40;;;;;;4177692;28;19924;-72
2022/09/27 05:49:59;;;;;;;;;;;30.60;96.20;;;;;;4160786;28;19936;-73
2022/09/27 05:52:03;;;;;;;;;;;30.60;96.30;;;;;;4176961;28;20374;-72
2022/09/27 05:54:08;;;;;;;;;;;30.70;96.30;;;;;;4160271;28;19960;-73
2022/09/27 05:56:17;;;;;;;;;;;30.80;96.10;;;;;;4143463;28;19925;-74
2022/09/27 05:58:41;;;;;;;;;;;30.90;95.60;;;;;;4144202;28;19968;-74
2022/09/27 06:00:51;;;;;;;;;;;31.00;95.70;;;;;;4159278;28;20008;-74
2022/09/27 06:03:19;;;;;;;;;;;30.90;95.20;;;;;;4129870;28;19932;-73
2022/09/27 06:05:36;;;;;;;;;;;30.80;95.70;;;;;;4129558;28;20080;-73
2022/09/27 06:08:00;;;;;;;;;;;30.90;95.70;;;;;;4142481;28;19926;-72
2022/09/27 06:10:12;;;;;;;;;;;31.10;95.60;;;;;;4143915;28;19982;-73
2022/09/27 06:12:20;;;;;;;;;;;31.10;95.90;;;;;;4160430;28;19925;-73
2022/09/27 06:14:27;;;;;;;;;;;31.00;94.70;;;;;;4166161;28;19925;-73
2022/09/27 06:16:44;;;;;;;;;;;31.00;95.10;;;;;;4155968;28;20400;-72
2022/09/27 06:18:48;;;;;;;;;;;31.00;95.90;;;;;;4157976;28;20019;-72
2022/09/27 06:20:54;;;;;;;;;;;31.00;95.50;;;;;;4141398;28;19944;-73
2022/09/27 06:23:11;;;;;;;;;;;31.00;95.60;;;;;;4167150;28;20307;-74
2022/09/27 06:25:19;;;;;;;;;;;30.90;94.70;;;;;;4157854;28;20399;-73
2022/09/27 06:27:43;;;;;;;;;;;30.80;95.50;;;;;;4142839;28;19925;-74
2022/09/27 06:29:58;;;;;;;;;;;30.90;95.90;;;;;;4141638;28;19926;-75
2022/09/27 06:32:25;;;;;;;;;;;31.00;95.90;;;;;;4160697;28;19925;-74
2022/09/27 06:34:49;;;;;;;;;;;31.10;95.70;;;;;;4143111;28;19932;-74
2022/09/27 06:37:01;;;;;;;;;;;31.10;95.30;;;;;;4172562;28;19925;-74
2022/09/27 06:39:06;;;;;;;;;;;31.10;95.30;;;;;;4158161;28;20570;-75
2022/09/27 06:41:25;;;;;;;;;;;31.10;95.30;;;;;;4158490;28;19967;-74
2022/09/27 06:43:30;;;;;;;;;;;31.20;96.00;;;;;;4142763;28;20031;-75
2022/09/27 06:45:42;;;;;;;;;;;31.10;95.40;;;;;;4143010;28;19988;-74
2022/09/27 06:48:07;;;;;;;;;;;31.20;95.80;;;;;;4177675;28;20031;-74
2022/09/27 06:50:20;;;;;;;;;;;31.10;95.30;;;;;;4177848;28;19924;-74
2022/09/27 06:52:28;;;;;;;;;;;31.00;94.20;;;;;;4160628;28;20025;-75
2022/09/27 06:54:35;;;;;;;;;;;31.00;94.50;;;;;;4145846;28;20462;-74
2022/09/27 06:56:40;;;;;;;;;;;31.10;95.00;;;;;;4145733;28;19961;-74
2022/09/27 07:01:16;;;;;;;;;;;31.20;95.10;;;;;;4146005;28;19933;-74
2022/09/27 07:03:38;;;;;;;;;;;31.20;95.50;;;;;;4158956;28;19971;-75
2022/09/27 07:06:03;;;;;;;;;;;31.10;94.50;;;;;;4145951;28;19925;-74
2022/09/27 07:08:18;;;;;;;;;;;30.80;95.00;;;;;;4144671;28;19925;-75
2022/09/27 07:10:25;;;;;;;;;;;30.80;95.10;;;;;;4176906;28;19924;-75
2022/09/27 07:12:34;;;;;;;;;;;30.70;94.90;;;;;;4176207;28;20276;-75
2022/09/27 07:14:43;;;;;;;;;;;30.80;95.70;;;;;;4176226;28;20399;-75
2022/09/27 07:16:50;;;;;;;;;;;30.90;95.50;;;;;;4144215;28;19929;-75
2022/09/27 07:18:56;;;;;;;;;;;31.00;95.30;;;;;;4176748;28;19951;-75
2022/09/27 07:21:01;;;;;;;;;;;31.00;94.90;;;;;;4161238;28;20039;-75
2022/09/27 07:23:07;;;;;;;;;;;31.10;95.20;;;;;;4178484;28;20816;-74
2022/09/27 07:25:12;;;;;;;;;;;31.10;95.60;;;;;;4145352;28;19968;-75
2022/09/27 07:27:17;;;;;;;;;;;31.10;95.40;;;;;;4161307;28;19932;-75
2022/09/27 07:29:23;;;;;;;;;;;31.10;95.40;;;;;;4145015;28;20655;-75
2022/09/27 07:31:29;;;;;;;;;;;31.20;95.50;;;;;;4144603;28;19932;-74
2022/09/27 07:33:33;;;;;;;;;;;31.10;95.30;;;;;;4144439;28;19976;-75
2022/09/27 07:35:43;;;;;;;;;;;31.10;95.50;;;;;;4145849;28;19931;-75
2022/09/27 07:37:53;;;;;;;;;;;31.10;95.10;;;;;;4144078;28;19933;-75
2022/09/27 07:39:58;;;;;;;;;;;31.10;96.30;;;;;;4159988;28;20383;-75
2022/09/27 07:42:04;;;;;;;;;;;31.00;94.90;;;;;;4145552;28;19925;-74
2022/09/27 07:44:19;;;;;;;;;;;31.00;95.30;;;;;;4159394;28;19925;-74
2022/09/27 07:46:45;;;;;;;;;;;30.90;95.30;;;;;;4145572;28;20044;-74
2022/09/27 07:48:56;;;;;;;;;;;30.90;95.60;;;;;;4176627;28;20034;-74
2022/09/27 07:51:13;;;;;;;;;;;30.90;95.00;;;;;;4144860;28;19925;-75
2022/09/27 07:53:28;;;;;;;;;;;30.90;95.70;;;;;;4175480;28;20011;-74
2022/09/27 07:55:52;;;;;;;;;;;31.00;95.20;;;;;;4176599;28;20410;-74
2022/09/27 07:58:04;;;;;;;;;;;31.00;95.80;;;;;;4174977;28;19928;-75
2022/09/27 08:00:11;;;;;;;;;;;31.10;95.90;;;;;;4160510;28;20283;-75
2022/09/27 08:02:16;;;;;;;;;;;31.10;96.40;;;;;;4145400;28;19931;-75
2022/09/27 08:04:23;;;;;;;;;;;31.20;96.30;;;;;;4175969;28;19939;-74
2022/09/27 08:06:28;;;;;;;;;;;31.30;95.90;;;;;;4145265;28;20020;-74
2022/09/27 08:08:34;;;;;;;;;;;31.30;95.60;;;;;;4176424;28;20011;-74
2022/09/27 08:10:42;;;;;;;;;;;31.40;95.80;;;;;;4176004;28;19928;-74
2022/09/27 08:12:49;;;;;;;;;;;31.40;95.80;;;;;;4159443;28;20306;-74
2022/09/27 08:14:57;;;;;;;;;;;31.30;95.60;;;;;;4159352;28;20633;-74
2022/09/27 08:17:03;;;;;;;;;;;31.20;95.50;;;;;;4176106;28;19975;-74
2022/09/27 08:19:23;;;;;;;;;;;31.20;95.80;;;;;;4144651;28;20048;-75
2022/09/27 08:21:41;;;;;;;;;;;31.20;95.90;;;;;;4144699;28;20349;-74
2022/09/27 08:23:53;;;;;;;;;;;31.20;95.30;;;;;;4175765;28;20706;-74
2022/09/27 08:26:07;;;;;;;;;;;31.20;94.80;;;;;;4159346;28;19935;-74
2022/09/27 08:28:32;;;;;;;;;;;31.10;94.20;;;;;;4159055;28;19925;-74
2022/09/27 08:30:52;;;;;;;;;;;31.10;94.60;;;;;;4175586;28;20410;-74
2022/09/27 08:32:58;;;;;;;;;;;31.10;94.70;;;;;;4159042;28;19925;-74
2022/09/27 08:35:09;;;;;;;;;;;31.10;94.90;;;;;;4143306;28;19971;-74
2022/09/27 08:37:21;;;;;;;;;;;31.00;94.40;;;;;;4158599;28;20067;-74
2022/09/27 08:39:27;;;;;;;;;;;31.00;95.20;;;;;;4144141;28;20748;-75
2022/09/27 08:41:35;;;;;;;;;;;31.00;94.60;;;;;;4175519;28;19960;-76
2022/09/27 08:43:55;;;;;;;;;;;30.80;94.30;;;;;;4175365;28;19925;-74
2022/09/27 08:46:14;;;;;;;;;;;30.80;95.00;;;;;;4175081;28;20272;-73
2022/09/27 08:48:25;;;;;;;;;;;30.90;95.10;;;;;;4159487;28;19936;-73
2022/09/27 08:50:35;;;;;;;;;;;30.90;95.00;;;;;;4143477;28;19925;-75
2022/09/27 08:52:49;;;;;;;;;;;30.80;95.10;;;;;;4142683;28;19933;-74
2022/09/27 08:54:54;;;;;;;;;;;30.80;94.50;;;;;;4126536;28;19930;-74
2022/09/27 08:57:08;;;;;;;;;;;30.80;94.30;;;;;;4142554;28;19932;-74
2022/09/27 08:59:19;;;;;;;;;;;30.70;94.80;;;;;;4153824;28;20737;-74
2022/09/27 09:01:25;;;;;;;;;;;30.80;94.70;;;;;;4175477;28;19947;-74
2022/09/27 09:03:48;;;;;;;;;;;30.70;93.90;;;;;;4158287;28;20731;-74
2022/09/27 09:06:12;;;;;;;;;;;30.70;94.40;;;;;;4144053;28;19925;-74
2022/09/27 09:08:25;;;;;;;;;;;30.70;94.20;;;;;;4158741;28;20011;-73
2022/09/27 09:13:30;;;;;;;;;;;30.80;94.70;;;;;;4143669;28;19965;-73
2022/09/27 09:15:55;;;;;;;;;;;30.60;95.30;;;;;;4158765;28;19975;-74
2022/09/27 09:18:27;;;;;;;;;;;30.70;95.70;;;;;;4141944;28;19932;-73
2022/09/27 09:20:54;;;;;;;;;;;30.80;95.50;;;;;;4141764;28;19964;-73
2022/09/27 09:23:17;;;;;;;;;;;30.80;95.60;;;;;;4174849;28;19932;-73
2022/09/27 09:25:44;;;;;;;;;;;30.90;95.40;;;;;;4174355;28;20403;-73
2022/09/27 09:28:07;;;;;;;;;;;30.80;95.90;;;;;;4158757;28;20024;-73
2022/09/27 09:30:19;;;;;;;;;;;30.60;94.50;;;;;;4141755;28;19936;-73
2022/09/27 09:32:49;;;;;;;;;;;30.60;95.50;;;;;;4106353;28;20161;-72
2022/09/27 09:34:58;;;;;;;;;;;30.60;95.60;;;;;;4121860;28;20428;-72
2022/09/27 09:37:42;;;;;;;;;;;30.60;95.60;;;;;;4123584;28;20060;-72
2022/09/27 09:39:55;;;;;;;;;;;30.60;95.60;;;;;;4124562;28;19925;-72
2022/09/27 09:42:14;;;;;;;;;;;30.50;95.50;;;;;;4119144;28;19929;-71
2022/09/27 09:44:28;;;;;;;;;;;30.50;95.30;;;;;;4076984;28;20500;-72
2022/09/27 09:46:38;;;;;;;;;;;30.50;95.50;;;;;;4092528;29;19968;-72
2022/09/27 09:49:17;;;;;;;;;;;30.40;95.50;;;;;;4092557;29;19926;-71
2022/09/27 09:51:38;;;;;;;;;;;30.40;95.80;;;;;;4076843;29;19938;-72
2022/09/27 09:54:02;;;;;;;;;;;30.30;95.60;;;;;;4081707;29;20025;-71
2022/09/27 09:56:25;;;;;;;;;;;30.30;95.90;;;;;;4075554;29;19965;-70
2022/09/27 09:58:43;;;;;;;;;;;30.30;96.40;;;;;;4063966;29;19926;-69
2022/09/27 10:00:50;;;;;;;;;;;30.30;96.00;;;;;;4076717;29;19950;-71
2022/09/27 10:02:58;;;;;;;;;;;30.30;96.60;;;;;;4071427;28;20449;-73
2022/09/27 10:05:03;;;;;;;;;;;30.30;96.30;;;;;;4122028;28;20348;-71
2022/09/27 10:07:15;;;;;;;;;;;30.30;96.50;;;;;;4139759;28;20004;-73
2022/09/27 10:09:26;;;;;;;;;;;30.10;96.70;;;;;;4139799;28;19925;-72
2022/09/27 10:11:53;;;;;;;;;;;30.10;97.00;;;;;;4127064;28;19964;-72
2022/09/27 10:14:19;;;;;;;;;;;30.10;97.10;;;;;;4125606;28;19932;-70
2022/09/27 10:16:28;;;;;;;;;;;30.10;97.50;;;;;;4123377;28;19953;-70
2022/09/27 10:18:36;;;;;;;;;;;30.20;97.70;;;;;;4139494;28;19976;-71
2022/09/27 10:20:43;;;;;;;;;;;30.20;97.80;;;;;;4123347;28;19926;-72
2022/09/27 10:22:52;;;;;;;;;;;30.20;97.50;;;;;;4142694;28;20331;-72
2022/09/27 10:25:16;;;;;;;;;;;30.20;97.80;;;;;;4146001;28;19983;-72
2022/09/27 10:27:37;;;;;;;;;;;30.10;97.80;;;;;;4173327;28;20284;-71
2022/09/27 10:29:44;;;;;;;;;;;30.10;98.20;;;;;;4172125;28;19975;-73
2022/09/27 10:31:57;;;;;;;;;;;30.20;98.30;;;;;;4142027;28;20396;-72
2022/09/27 10:34:14;;;;;;;;;;;30.10;98.30;;;;;;4142131;28;19971;-72
2022/09/27 10:36:24;;;;;;;;;;;30.10;98.20;;;;;;4173652;28;19982;-72
2022/09/27 10:38:35;;;;;;;;;;;30.00;98.70;;;;;;4158155;28;19929;-71
2022/09/27 10:40:54;;;;;;;;;;;30.00;98.90;;;;;;4158043;28;20360;-73
2022/09/27 10:42:58;;;;;;;;;;;30.00;99.20;;;;;;4158154;28;19932;-74
2022/09/27 10:45:31;;;;;;;;;;;30.00;99.30;;;;;;4141699;28;19994;-73
2022/09/27 10:47:48;;;;;;;;;;;30.00;99.20;;;;;;4141349;28;19929;-73
2022/09/27 10:50:25;;;;;;;;;;;29.90;99.40;;;;;;4174075;28;19925;-71
2022/09/27 10:53:11;;;;;;;;;;;29.90;99.40;;;;;;4172311;28;20464;-71
2022/09/27 10:55:27;;;;;;;;;;;29.90;99.70;;;;;;4141741;28;19931;-74
2022/09/27 10:57:37;;;;;;;;;;;30.00;99.90;;;;;;4140907;28;20020;-73
2022/09/27 10:59:51;;;;;;;;;;;30.00;99.90;;;;;;4173924;28;19935;-73
2022/09/27 11:01:55;;;;;;;;;;;29.90;99.90;;;;;;4141239;28;19925;-72
2022/09/27 11:04:14;;;;;;;;;;;29.90;99.90;;;;;;4140584;28;19976;-73
2022/09/27 11:06:28;;;;;;;;;;;29.90;99.90;;;;;;4141575;28;19929;-72
2022/09/27 11:08:33;;;;;;;;;;;29.90;99.90;;;;;;4159899;28;19925;-71
2022/09/27 11:11:00;;;;;;;;;;;29.90;99.90;;;;;;4159997;28;19929;-73
2022/09/27 11:13:07;;;;;;;;;;;29.90;99.90;;;;;;4158681;28;19925;-72
2022/09/27 11:15:26;;;;;;;;;;;29.80;99.90;;;;;;4168854;28;19924;-72
2022/09/27 11:17:47;;;;;;;;;;;29.80;99.90;;;;;;4174404;28;20015;-73
2022/09/27 11:20:11;;;;;;;;;;;29.80;99.90;;;;;;4141756;28;20615;-73
2022/09/27 11:22:19;;;;;;;;;;;29.80;99.90;;;;;;4173593;28;20006;-73
2022/09/27 11:24:36;;;;;;;;;;;29.70;99.90;;;;;;4158589;28;19925;-73
2022/09/27 11:26:53;;;;;;;;;;;29.70;99.90;;;;;;4158726;28;19924;-73
2022/09/27 11:29:18;;;;;;;;;;;29.70;99.90;;;;;;4174772;28;20020;-73
2022/09/27 11:31:57;;;;;;;;;;;29.70;99.90;;;;;;4155135;28;19956;-72
2022/09/27 11:34:21;;;;;;;;;;;29.70;99.90;;;;;;4173452;28;19928;-73
2022/09/27 11:36:45;;;;;;;;;;;29.70;99.90;;;;;;4174565;28;20015;-73
2022/09/27 11:39:08;;;;;;;;;;;29.70;99.90;;;;;;4174514;28;19924;-72
2022/09/27 11:41:31;;;;;;;;;;;29.70;99.90;;;;;;4157831;28;19929;-72
2022/09/27 11:43:56;;;;;;;;;;;29.60;99.90;;;;;;4141767;28;19925;-74
2022/09/27 11:46:20;;;;;;;;;;;29.60;99.90;;;;;;4174199;28;19924;-72
2022/09/27 11:48:48;;;;;;;;;;;29.60;99.90;;;;;;4156146;28;20391;-73
2022/09/27 11:51:06;;;;;;;;;;;29.60;99.90;;;;;;4172723;28;20395;-73
2022/09/27 11:53:25;;;;;;;;;;;29.60;99.90;;;;;;4156585;28;19931;-73
2022/09/27 11:55:45;;;;;;;;;;;29.50;99.90;;;;;;4171932;28;19932;-73
2022/09/27 11:58:09;;;;;;;;;;;29.50;99.90;;;;;;4141243;28;19956;-72
2022/09/27 12:00:43;;;;;;;;;;;29.50;99.90;;;;;;4171630;28;20362;-73
2022/09/27 12:03:25;;;;;;;;;;;29.50;99.90;;;;;;4153897;28;19932;-73
2022/09/27 12:05:59;;;;;;;;;;;29.50;99.90;;;;;;4167571;28;19930;-73
2022/09/27 12:08:33;;;;;;;;;;;29.50;99.90;;;;;;4173951;28;19927;-73
2022/09/27 12:10:37;;;;;;;;;;;29.40;99.90;;;;;;4157727;28;19928;-75
2022/09/27 12:12:44;;;;;;;;;;;29.50;99.90;;;;;;4157487;28;20007;-73
2022/09/27 12:14:55;;;;;;;;;;;29.50;99.90;;;;;;4173447;28;19963;-74
2022/09/27 12:16:59;;;;;;;;;;;29.40;99.90;;;;;;4157202;28;20015;-72
2022/09/27 12:19:08;;;;;;;;;;;29.40;99.90;;;;;;4141491;28;20406;-72
2022/09/27 12:21:26;;;;;;;;;;;29.40;99.90;;;;;;4142514;28;19929;-72
2022/09/27 12:23:40;;;;;;;;;;;29.40;99.90;;;;;;4141751;28;19975;-74
2022/09/27 12:26:04;;;;;;;;;;;29.40;99.90;;;;;;4142023;28;19926;-72
2022/09/27 12:28:11;;;;;;;;;;;29.40;99.90;;;;;;4141050;28;20432;-74
2022/09/27 12:30:16;;;;;;;;;;;29.30;99.90;;;;;;4141062;28;19936;-73
2022/09/27 12:32:26;;;;;;;;;;;29.30;99.90;;;;;;4164924;28;19924;-71
2022/09/27 12:34:49;;;;;;;;;;;29.30;99.90;;;;;;4140389;28;19929;-73
2022/09/27 12:37:02;;;;;;;;;;;29.30;99.90;;;;;;4171986;28;20018;-73
2022/09/27 12:39:16;;;;;;;;;;;29.30;99.90;;;;;;4174474;28;19975;-74
2022/09/27 12:41:24;;;;;;;;;;;29.30;99.90;;;;;;4142061;28;19968;-74
2022/09/27 12:43:43;;;;;;;;;;;29.20;99.90;;;;;;4141527;28;19979;-73
2022/09/27 12:46:13;;;;;;;;;;;29.20;99.90;;;;;;4156418;28;19924;-73
2022/09/27 12:48:31;;;;;;;;;;;29.20;99.90;;;;;;4170962;28;20015;-74
2022/09/27 12:50:53;;;;;;;;;;;29.20;99.90;;;;;;4169244;28;19952;-72
2022/09/27 12:53:22;;;;;;;;;;;29.20;99.90;;;;;;4140080;28;19963;-71
2022/09/27 12:55:36;;;;;;;;;;;29.20;99.90;;;;;;4157676;28;19925;-73
2022/09/27 12:58:06;;;;;;;;;;;29.20;99.90;;;;;;4141805;28;19995;-74
2022/09/27 13:00:14;;;;;;;;;;;29.20;99.90;;;;;;4157257;28;19924;-74
2022/09/27 13:02:43;;;;;;;;;;;29.20;99.90;;;;;;4153352;28;19964;-73
2022/09/27 13:05:38;;;;;;;;;;;29.10;99.90;;;;;;4140090;28;19925;-72
2022/09/27 13:08:22;;;;;;;;;;;29.10;99.90;;;;;;4142888;28;20040;-74
2022/09/27 13:10:40;;;;;;;;;;;29.10;99.90;;;;;;4157568;28;19931;-73
2022/09/27 13:13:03;;;;;;;;;;;29.10;99.90;;;;;;4172326;28;19996;-72
2022/09/27 13:15:24;;;;;;;;;;;29.10;99.90;;;;;;4142053;28;19929;-73
2022/09/27 13:17:47;;;;;;;;;;;29.10;99.90;;;;;;4156440;28;20310;-74
2022/09/27 13:20:17;;;;;;;;;;;29.10;99.90;;;;;;4157772;28;19952;-72
2022/09/27 13:22:41;;;;;;;;;;;29.00;99.90;;;;;;4170277;28;19925;-72
2022/09/27 13:25:27;;;;;;;;;;;29.00;99.90;;;;;;4151968;28;19925;-72